This is the latest recevied weather packets stored in our database for station/object WS2Z. If no packets are shown the sender has not sent any weather packets the latest 10 day(s).
| Time | Temp. | Humidity | Pressure | Rain* | Wind** | Luminosity | Snow |
|---|---|---|---|---|---|---|---|
| 1777923860 | 30° C | 58% | 1013.4 hPa | 0 mm | - | 717 W/m² | - |
| 1777923556 | 30° C | 61% | 1013.5 hPa | 0 mm | - | 744 W/m² | - |
| 1777923254 | 30° C | 59% | 1013.5 hPa | 0 mm | - | 772 W/m² | - |
| 1777922953 | 29.44° C | 61% | 1013.7 hPa | 0 mm | - | 772 W/m² | - |
| 1777922649 | 28.33° C | 65% | 1014 hPa | 0 mm | - | 807 W/m² | - |
| 1777922348 | 27.78° C | 65% | 1014.1 hPa | 0 mm | - | 211 W/m² | - |
| 1777922046 | 27.78° C | 64% | 1014.2 hPa | 0 mm | - | 204 W/m² | - |
| 1777921741 | 27.78° C | 65% | 1014.1 hPa | 0 mm | - | 203 W/m² | - |
| 1777921437 | 27.78° C | 65% | 1014.2 hPa | 0 mm | - | 131 W/m² | - |
| 1777921134 | 27.78° C | 64% | 1014.1 hPa | 0 mm | - | 121 W/m² | - |
| 1777920831 | 28.33° C | 63% | 1014.3 hPa | 0 mm | - | 123 W/m² | - |
| 1777920527 | 28.33° C | 62% | 1014.3 hPa | 0 mm | - | 145 W/m² | - |
| 1777920223 | 28.33° C | 63% | 1014.4 hPa | 0 mm | - | 136 W/m² | - |
| 1777919919 | 28.33° C | 63% | 1014.5 hPa | 0 mm | - | 136 W/m² | - |
| 1777919616 | 27.78° C | 65% | 1014.7 hPa | 0 mm | - | 111 W/m² | - |
| 1777919314 | 27.78° C | 65% | 1014.8 hPa | 0 mm | - | 98 W/m² | - |
| 1777919011 | 28.33° C | 64% | 1014.6 hPa | 0 mm | - | 106 W/m² | - |
| 1777918708 | 28.33° C | 64% | 1014.7 hPa | 0 mm | - | 133 W/m² | - |
| 1777918405 | 28.89° C | 63% | 1014.8 hPa | 0 mm | - | 140 W/m² | - |
| 1777918104 | 29.44° C | 61% | 1014.8 hPa | 0 mm | - | 184 W/m² | - |
| 1777917802 | 28.33° C | 64% | 1014.7 hPa | 0 mm | - | 899 W/m² | - |
| 1777917500 | 28.33° C | 65% | 1014.7 hPa | 0 mm | - | 239 W/m² | - |
| 1777917197 | 28.89° C | 62% | 1014.9 hPa | 0 mm | - | 217 W/m² | - |
| 1777916895 | 28.33° C | 64% | 1014.9 hPa | 0 mm | - | 882 W/m² | - |
| 1777916592 | 28.33° C | 65% | 1014.9 hPa | 0 mm | - | 875 W/m² | - |
* Rain latest hour (hover to see other rain measurements)
** Current wind speed in m/s (hover to see current wind gust speed)